aviador You're here:

KMLP Decoded Metar

MULLAN PASS in ID, USA
Report Time2018-05-28 06:53:00
UTC Time2018-05-28 07:57:05
Flight Rules vfr VFR
Wind310° at 05 kt
W.Rank310° ranks 6
Current wind is below 310° avg. (5.2)
Visibility9999 m
Phenomena:N/A
Clouds:N/A
Expected CloudBase > 2,800 ft AGL from Temp-Dew spread
CeilingNone
Temp11°C (ISA +8)
Dew Point04°C (62% RH)
AAT7.9°C
QNH1022 hPa
Density Alt6,781 ft
Elevation6,027 ft
Report Wrong Elevation
Raw Report
KMLP 280653Z AUTO 31005KT 10SM CLR 11/04 A3018 RMK AO2 SLP142
T01060039 $=

Extra information for KMLP:More info

Metar Taf Metar & Taf Last 4 Metars F.Rules Stats Wind Profile Meteogram Temp Stats Airport Information Weather charts Add Link Nearby VenuesMetar ALERT Operation Metar Decoded Social comments

AIRNAV info for KMLP